Log in Register

Login to your account

Username *
Password *
Remember Me

Create an account

Fields marked with an asterisk (*) are required.
Name *
Username *
Password *
Verify password *
Email *
Verify email *

Nous contacter

 Téléphone : +33 (0)4 79 54 41 81

Coordonnées détaillées et accès : cliquez ici

 
LFLB °C
    Ferienhaus Ostsee
[source: ADDS]
METAR
LFLB 242100Z AUTO VRB03KT 9999 BKN058 BKN110 BKN130 21/19 Q1011 =
TAF LFLB 241400Z 2415/2515 VRB03KT 9999 SCT055 BKN120 TEMPO 2415/2424 SHRA SCT060TCU PROB40 TEMPO 2415/2421 VRB15G25KT 4000 TSRA SCT050CB TEMPO 2511/2515 FEW060TCU
TAF
TAF LFLB 241400Z 2415/2515 VRB03KT 9999 SCT055 BKN120 TEMPO 2415/2424 SHRA SCT060TCU PROB40 TEMPO 2415/2421 VRB15G25KT 4000 TSRA SCT050CB TEMPO 2511/2515 FEW060TCU =
SR / SS: 04:11 / 19:14 UTC (Lever/Coucher du soleil le 2021-07-24)
JSN Boot template designed by JoomlaShine.com